Tiempo atmosférico en la estación meteorológica de Osa De La Vega, Cuenca (763 m.)



Fecha
DESCASC
Temp. máxima en grados centígrados (hora)
DESCASC
Temp. mínima en grados centígrados (hora)
DESCASC
Temp. media en grados centígrados
DESCASC
Racha de viento máxima en m/sg (hora)
DESCASC
Velocidad máxima media en intervalos de 10 minutos(hora)
DESCASC
Precipitaciones diarias en mm
DESCASC
Precipitaciones de 00:00 a 06:00 en mm
DESCASC
Precipitaciones de 06:00 a 12:00 en mm
DESCASC
Precipitaciones de 12:00 a 18:00 en mm
DESCASC
Precipitaciones de 18:00 a 24:00 en mm
DESCASC
03-08-2019 36.1 (17:00) 18.4 (00:00) 27.2 10.28 (17:30) 6.11 (17:30) 0 0 0 0 0
17-08-2019 37.3 (17:10) 16.9 (00:00) 27.1 10.28 (16:50) 6.11 (16:50) 0 0 0 0 0
16-08-2019 36.7 (18:40) 19 (00:00) 27.9 8.89 (13:20) 5 (17:50) 0 0 0 0 0
15-08-2019 35.3 (17:40) 15.5 (00:00) 25.4 8.06 (15:00) 3.89 (14:40) 0 0 0 0 0
14-08-2019 33.1 (19:00) 14.1 (00:00) 23.6 7.22 (17:30) 3.33 (16:00) 0 0 0 0 0
13-08-2019 29.7 (17:20) 17.9 (00:00) 23.8 8.61 (16:10) 3.89 (10:00) 0 0 0 0 0
12-08-2019 28.6 (18:40) 15.1 (00:00) 21.9 10.28 (10:20) 5.83 (10:20) 0 0 0 0 0
11-08-2019 31.8 (17:20) 14.8 (00:00) 23.3 10.28 (16:00) 5.56 (18:10) 0 0 0 0 0
10-08-2019 33.1 (18:30) 17.9 (00:00) 25.5 10.28 (17:10) 6.67 (17:10) 0 0 0 0 0
09-08-2019 33.9 (17:30) 15.6 (00:00) 24.8 11.11 (16:10) 6.67 (15:50) 0 0 0 0 0
08-08-2019 34.2 (18:40) 15 (00:00) 24.6 9.72 (18:50) 6.11 (18:50) 0 0 0 0 0
07-08-2019 31.8 (15:40) 15.2 (00:00) 23.5 10.28 (17:00) 5.28 (17:20) 0 0 0 0 0
06-08-2019 35.7 (17:20) 14.9 (00:00) 25.3 11.11 (13:40) 6.11 (17:10) 0 0 0 0 0
05-08-2019 36.7 (17:30) 15.8 (00:00) 26.3 9.72 (13:50) 4.72 (18:30) 0 0 0 0 0
04-08-2019 36.4 (18:50) 16.1 (00:00) 26.3 10.28 (17:10) 5.28 (16:30) 0 0 0 0 0
19-07-2019 37.1 (18:00) 19.5 (00:00) 28.3 10.28 (17:50) 6.39 (21:00) 0 0 0 0 0
02-08-2019 36.4 (18:50) 14.3 (00:00) 25.4 7.5 (13:40) 4.44 (13:40) 0 0 0 0 0
01-08-2019 35 (18:00) 17.5 (00:00) 26.3 10 (16:30) 5.83 (03:20) 0 0 0 0 0
31-07-2019 32.5 (16:40) 19 (00:00) 25.8 13.89 (12:50) 8.61 (13:00) 0 0 0 0 0
30-07-2019 33 (18:50) 15.4 (00:00) 24.2 7.5 (14:50) 3.89 (23:50) 0 0 0 0 0
29-07-2019 33.2 (18:00) 14 (00:00) 23.6 9.72 (13:50) 5.28 (13:50) 0 0 0 0 0
28-07-2019 30.3 (19:00) 13.8 (00:00) 22 6.39 (15:00) 3.33 (13:40) 0 0 0 0 0
27-07-2019 27.2 (16:10) 13.6 (00:00) 20.4 12.22 (17:00) 6.11 (17:00) 0 0 0 0 0
26-07-2019 31.9 (18:00) 19 (00:00) 25.4 10.83 (14:50) 6.94 (14:40) 0 0 0 0 0
25-07-2019 37.3 (18:10) 20.2 (00:00) 28.8 11.11 (20:40) 6.39 (20:40) 0.8 0 0 0 0.8
24-07-2019 37.9 (17:20) 19.6 (00:00) 28.8 11.39 (14:00) 7.22 (13:40) 0 0 0 0 0
23-07-2019 37.2 (17:40) 20.9 (00:00) 29.1 15.83 (21:10) 8.89 (18:20) 1.2 0 0 0 1.2
22-07-2019 36.6 (17:40) 20.3 (00:00) 28.4 15.83 (15:30) 9.72 (18:40) 0 0 0 0 0
21-07-2019 37 (17:10) 21.1 (00:00) 29.1 11.67 (17:10) 6.39 (10:50) 0 0 0 0 0
20-07-2019 38.5 (18:20) 19.7 (00:00) 29.1 11.67 (22:20) 6.94 (22:10) 0 0 0 0 0

Gráficas

Temp. máximas Temp. mínimas Temp. medias Precipitaciones Rachas de viento máximas Velocidades máximas media en intervalos de 10 minutos

Datos horarios

Fecha y hora oficial Temperatura (ºC) Velocidad del viento (km/h) Dirección del viento Racha (km/h) Dirección de racha Precipitación (mm) Presión (hPa) Tendencia (hPa) Humedad (%)
2019-08-17 23:00:00 28 5 Norte 16 Noroeste 0 -- -- 26
2019-08-17 22:00:00 29.5 0 Calma 9 Sudoeste 0 -- -- 25
2019-08-17 21:00:00 32.6 5 Sur 20 Sur 0 -- -- 23
2019-08-17 20:00:00 35.2 14 Sudoeste 26 Sur 0 -- -- 20
2019-08-17 19:00:00 36.5 19 Sur 34 Sur 0 -- -- 18
2019-08-17 18:00:00 36.9 21 Sudoeste 32 Sur 0 -- -- 17
2019-08-17 17:00:00 37.1 18 Sur 37 Sudoeste 0 -- -- 19
2019-08-17 16:00:00 36.6 19 Sur 37 Sur 0 -- -- 21
2019-08-17 15:00:00 35.4 15 Sudoeste 36 Sudoeste 0 -- -- 23
2019-08-17 14:00:00 34.5 12 Sudoeste 27 Sur 0 -- -- 26
2019-08-17 13:00:00 33.4 14 Sur 22 Sur 0 -- -- 28
2019-08-17 12:00:00 30 10 Sur 20 Sur 0 -- -- 33
2019-08-17 11:00:00 27 11 Sur 18 Sur 0 -- -- 37
2019-08-17 10:00:00 23.4 9 Sur 13 Sur 0 -- -- 44
2019-08-17 09:00:00 18.5 0 Calma 5 Noroeste 0 -- -- 67
2019-08-17 08:00:00 17 0 Calma 7 Noroeste 0 -- -- 62
2019-08-17 07:00:00 17 4 Noroeste 5 Noroeste 0 -- -- 65
2019-08-17 06:00:00 18.4 0 Calma 6 Noroeste 0 -- -- 59
2019-08-17 05:00:00 19.2 4 Noroeste 7 Noroeste 0 -- -- 61
2019-08-17 04:00:00 21.1 3 Norte 6 Noroeste 0 -- -- 55
2019-08-17 03:00:00 22.1 3 Sudeste 12 Sur 0 -- -- 52
2019-08-17 02:00:00 22.8 2 Noroeste 8 Nordeste 0 -- -- 41
2019-08-17 01:00:00 23.4 3 Noroeste 6 Noroeste 0 -- -- 35
2019-08-17 00:00:00 25.5 3 Norte 8 Noroeste 0 -- -- 32
2019-08-16 23:00:00 27.9 4 Norte 11 Norte 0 -- -- 29
2019-08-16 22:00:00 30.7 2 Oeste 11 Sudoeste 0 -- -- 27
2019-08-16 21:00:00 32.8 5 Sudoeste 19 Sudoeste 0 -- -- 23
2019-08-16 20:00:00 34.8 15 Sudoeste 30 Sudoeste 0 -- -- 20
2019-08-16 19:00:00 36.1 15 Sudoeste 28 Sudoeste 0 -- -- 20
2019-08-16 18:00:00 36.4 10 Sudoeste 28 Sudoeste 0 -- -- 21
2019-08-16 17:00:00 35.6 14 Sudoeste 29 Sudoeste 0 -- -- 22
2019-08-16 16:00:00 35 8 Oeste 29 Sudoeste 0 -- -- 22
2019-08-16 15:00:00 34.4 12 Sudoeste 30 Sudoeste 0 -- -- 25
2019-08-16 14:00:00 33 10 Sur 32 Sudoeste 0 -- -- 31
2019-08-16 13:00:00 30.8 9 Sur 24 Sur 0 -- -- 35
2019-08-16 12:00:00 28.6 13 Sur 24 Sudeste 0 -- -- 39
2019-08-16 11:00:00 25.8 12 Sudeste 25 Este 0 -- -- 45
2019-08-16 10:00:00 23.2 14 Este 26 Sudeste 0 -- -- 55
2019-08-16 09:00:00 20.6 10 Sudeste 16 Sudeste 0 -- -- 63
2019-08-16 08:00:00 19 4 Sudeste 17 Sudeste 0 -- -- 68
2019-08-16 07:00:00 19.3 7 Sudeste 16 Este 0 -- -- 67
2019-08-16 06:00:00 19.8 6 Sur 13 Sur 0 -- -- 65
2019-08-16 05:00:00 20.5 8 Sudeste 17 Sudeste 0 -- -- 63
2019-08-16 04:00:00 21.4 7 Este 19 Este 0 -- -- 63
2019-08-16 03:00:00 22 6 Sudeste 19 Este 0 -- -- 62
2019-08-16 02:00:00 22.9 12 Este 28 Sudeste 0 -- -- 61
2019-08-16 01:00:00 23.5 6 Sudeste 14 Este 0 -- -- 54
2019-08-16 00:00:00 23.1 4 Norte 6 Norte 0 -- -- 30
2019-08-15 23:00:00 25.2 3 Norte 5 Norte 0 -- -- 27
2019-08-15 22:00:00 28.9 3 Norte 6 Norte 0 -- -- 24
2019-08-15 21:00:00 31.8 3 Noroeste 16 Oeste 0 -- -- 22
2019-08-15 20:00:00 33.9 6 Norte 20 Oeste 0 -- -- 20
2019-08-15 19:00:00 34.9 8 Noroeste 20 Noroeste 0 -- -- 19
2019-08-15 18:00:00 35.1 6 Oeste 24 Noroeste 0 -- -- 19
2019-08-15 17:00:00 34.5 8 Norte 22 Noroeste 0 -- -- 19
2019-08-15 16:00:00 34.7 8 Oeste 27 Sudoeste 0 -- -- 19
2019-08-15 15:00:00 34.4 14 Sur 29 Sur 0 -- -- 22
2019-08-15 14:00:00 33.1 8 Oeste 19 Sur 0 -- -- 23
2019-08-15 13:00:00 30.5 5 Sudoeste 17 Sur 0 -- -- 26
2019-08-15 12:00:00 27.8 4 Nordeste 15 Sur 0 -- -- 39
2019-08-15 11:00:00 25.8 7 Sur 14 Sudeste 0 -- -- 48
2019-08-15 10:00:00 21.5 4 Sur 8 Sur 0 -- -- 56
2019-08-15 09:00:00 17.5 2 Norte 8 Noroeste 0 -- -- 61
2019-08-15 08:00:00 15.8 4 Norte 7 Norte 0 -- -- 59
2019-08-15 07:00:00 15.7 4 Noroeste 11 Norte 0 -- -- 55
2019-08-15 06:00:00 16.1 4 Noroeste 8 Norte 0 -- -- 43
2019-08-15 05:00:00 16.7 5 Noroeste 10 Noroeste 0 -- -- 40
2019-08-15 04:00:00 17.2 6 Norte 12 Este 0 -- -- 37
2019-08-15 03:00:00 17.5 4 Norte 10 Noroeste 0 -- -- 35
2019-08-15 02:00:00 18.6 6 Norte 9 Norte 0 -- -- 33
2019-08-15 01:00:00 19.9 2 Noroeste 3 Norte 0 -- -- 33
2019-08-15 00:00:00 21.5 3 Noroeste 9 Norte 0 -- -- 30
2019-08-14 23:00:00 23.3 8 Norte 10 Norte 0 -- -- 29
2019-08-14 22:00:00 26.7 3 Noroeste 7 Noroeste 0 -- -- 26
2019-08-14 21:00:00 29.8 4 Noroeste 12 Noroeste 0 -- -- 23
2019-08-14 20:00:00 32.3 3 Oeste 14 Noroeste 0 -- -- 20
2019-08-14 19:00:00 33.1 5 Oeste 26 Noroeste 0 -- -- 18
2019-08-14 18:00:00 32.6 6 Oeste 26 Noroeste 0 -- -- 20
2019-08-14 17:00:00 32.1 6 Noroeste 21 Noroeste 0 -- -- 21
2019-08-14 16:00:00 31.4 12 Noroeste 22 Noroeste 0 -- -- 22
2019-08-14 15:00:00 30.3 8 Noroeste 23 Noroeste 0 -- -- 24
2019-08-14 14:00:00 29.8 9 Noroeste 20 Noroeste 0 -- -- 24
2019-08-14 13:00:00 27.7 5 Noroeste 13 Sudoeste 0 -- -- 31
2019-08-14 12:00:00 24.9 3 Sur 13 Sudeste 0 -- -- 44
2019-08-14 11:00:00 22.6 6 Sudeste 14 Sudeste 0 -- -- 63
2019-08-14 10:00:00 20.3 6 Sudeste 15 Sudeste 0 -- -- 77
2019-08-14 09:00:00 16.5 2 Nordeste 4 Nordeste 0 -- -- 88
2019-08-14 08:00:00 14.2 0 Calma 6 Noroeste 0 -- -- 77
2019-08-14 07:00:00 14.8 3 Noroeste 5 Noroeste 0 -- -- 80
2019-08-14 06:00:00 15 0 Calma 9 Norte 0 -- -- 76
2019-08-14 05:00:00 14.9 4 Noroeste 6 Noroeste 0 -- -- 64
2019-08-14 04:00:00 16.1 3 Noroeste 7 Noroeste 0 -- -- 57
2019-08-14 03:00:00 16.3 4 Noroeste 13 Noroeste 0 -- -- 48
2019-08-14 02:00:00 16 4 Noroeste 10 Sudeste 0 -- -- 37
2019-08-14 01:00:00 17.5 0 Calma 6 Norte 0 -- -- 33
2019-08-14 00:00:00 19.1 3 Norte 8 Norte 0 -- -- 31
2019-08-13 23:00:00 20.9 5 Noroeste 7 Noroeste 0 -- -- 29
2019-08-13 22:00:00 24 2 Norte 13 Noroeste 0 -- -- 26
2019-08-13 21:00:00 26.6 9 Noroeste 22 Noroeste 0 -- -- 23
2019-08-13 20:00:00 28.5 11 Noroeste 24 Norte 0 -- -- 23
2019-08-13 19:00:00 29.6 9 Noroeste 25 Norte 0 -- -- 23
2019-08-13 18:00:00 29.7 13 Noroeste 30 Noroeste 0 -- -- 24
2019-08-13 17:00:00 29.3 10 Norte 31 Oeste 0 -- -- 27
2019-08-13 16:00:00 28.7 9 Norte 19 Noroeste 0 -- -- 28
2019-08-13 15:00:00 27.8 5 Sur 17 Sur 0 -- -- 32
2019-08-13 14:00:00 26.8 4 Norte 19 Sur 0 -- -- 39
2019-08-13 13:00:00 26.3 6 Sur 22 Este 0 -- -- 41
2019-08-13 12:00:00 24.6 10 Sudeste 21 Sudeste 0 -- -- 55
2019-08-13 11:00:00 22.6 10 Sudeste 20 Este 0 -- -- 60
2019-08-13 10:00:00 20.8 14 Este 26 Este 0 -- -- 64
2019-08-13 09:00:00 18.9 7 Este 14 Este 0 -- -- 70
2019-08-13 08:00:00 17.9 3 Nordeste 11 Norte 0 -- -- 66
2019-08-13 07:00:00 18.3 4 Norte 13 Nordeste 0 -- -- 62
2019-08-13 06:00:00 18.3 4 Este 18 Este 0 -- -- 66
2019-08-13 05:00:00 18.1 7 Este 17 Nordeste 0 -- -- 61
2019-08-13 04:00:00 18.5 8 Este 21 Nordeste 0 -- -- 55
2019-08-13 03:00:00 19.2 4 Este 24 Este 0 -- -- 77
2019-08-13 02:00:00 19.8 11 Este 23 Este 0 -- -- 75
2019-08-13 01:00:00 18.5 4 Este 14 Norte 0 -- -- 54
2019-08-13 00:00:00 18.8 4 Noroeste 10 Noroeste 0 -- -- 28
2019-08-12 23:00:00 20.1 4 Norte 9 Norte 0 -- -- 26
2019-08-12 22:00:00 22.1 7 Norte 17 Noroeste 0 -- -- 23
2019-08-12 21:00:00 25.1 10 Norte 20 Noroeste 0 -- -- 21
2019-08-12 20:00:00 27.2 9 Norte 23 Norte 0 -- -- 19
2019-08-12 19:00:00 28.4 10 Norte 26 Noroeste 0 -- -- 21
2019-08-12 18:00:00 28.2 10 Noroeste 26 Noroeste 0 -- -- 19
2019-08-12 17:00:00 28.1 10 Noroeste 23 Norte 0 -- -- 20
2019-08-12 16:00:00 27.2 8 Noroeste 24 Oeste 0 -- -- 20
2019-08-12 15:00:00 26.3 11 Norte 31 Noroeste 0 -- -- 22
2019-08-12 14:00:00 25.1 9 Norte 28 Noroeste 0 -- -- 27
2019-08-12 13:00:00 23.4 11 Norte 32 Norte 0 -- -- 31
2019-08-12 12:00:00 22.5 15 Norte 33 Norte 0 -- -- 36
2019-08-12 11:00:00 21 19 Norte 37 Norte 0 -- -- 41
2019-08-12 10:00:00 19.7 18 Norte 31 Norte 0 -- -- 46
2019-08-12 09:00:00 16.5 5 Norte 12 Norte 0 -- -- 54
2019-08-12 08:00:00 15.2 7 Noroeste 15 Noroeste 0 -- -- 49
2019-08-12 07:00:00 15.4 9 Norte 17 Norte 0 -- -- 43
2019-08-12 06:00:00 15.8 10 Norte 17 Noroeste 0 -- -- 39
2019-08-12 05:00:00 16.5 6 Norte 14 Noroeste 0 -- -- 38
2019-08-12 04:00:00 17.8 5 Norte 18 Noroeste 0 -- -- 35
2019-08-12 03:00:00 18.8 11 Noroeste 21 Noroeste 0 -- -- 34
2019-08-12 02:00:00 18.6 4 Noroeste 13 Norte 0 -- -- 34
2019-08-12 01:00:00 19.1 3 Norte 6 Norte 0 -- -- 33
2019-08-12 00:00:00 20.2 4 Norte 12 Noroeste 0 -- -- 32
2019-08-11 23:00:00 21.7 8 Noroeste 20 Noroeste 0 -- -- 30
2019-08-11 22:00:00 23.8 8 Noroeste 22 Noroeste 0 -- -- 25
2019-08-11 21:00:00 26.4 5 Sudoeste 22 Sudoeste 0 -- -- 18
2019-08-11 20:00:00 28 10 Oeste 27 Oeste 0 -- -- 19
2019-08-11 19:00:00 30.5 13 Oeste 31 Sudoeste 0 -- -- 19
2019-08-11 18:00:00 31.3 20 Sudoeste 34 Sudoeste 0 -- -- 18
2019-08-11 17:00:00 31.5 14 Sudoeste 35 Sudoeste 0 -- -- 19
2019-08-11 16:00:00 30.8 15 Sudoeste 37 Sur 0 -- -- 22
2019-08-11 15:00:00 30 16 Sudoeste 31 Sudoeste 0 -- -- 24
2019-08-11 14:00:00 28.8 14 Sudoeste 30 Sudoeste 0 -- -- 25
2019-08-11 13:00:00 27.5 12 Sudoeste 32 Sudoeste 0 -- -- 28
2019-08-11 12:00:00 26.4 14 Sudoeste 25 Sur 0 -- -- 30
2019-08-11 11:00:00 24.4 9 Sur 17 Sur 0 -- -- 36
2019-08-11 10:00:00 21.8 6 Sur 11 Sur 0 -- -- 40
2019-08-11 09:00:00 17.1 3 Sur 6 Sur 0 -- -- 47
2019-08-11 08:00:00 14.9 0 Calma 6 Sur 0 -- -- 49
2019-08-11 07:00:00 14.9 0 Calma 5 Sudeste 0 -- -- 48
2019-08-11 06:00:00 15.8 0 Calma 6 Este 0 -- -- 47
2019-08-11 05:00:00 16.8 3 Este 7 Sudeste 0 -- -- 45
2019-08-11 04:00:00 19.2 3 Norte 6 Norte 0 -- -- 41
2019-08-11 03:00:00 20.1 3 Norte 8 Noroeste 0 -- -- 39
2019-08-11 02:00:00 21.5 4 Norte 9 Norte 0 -- -- 38
2019-08-11 01:00:00 23.5 8 Norte 14 Norte 0 -- -- 37
2019-08-11 00:00:00 25.1 6 Noroeste 14 Noroeste 0 -- -- 36
2019-08-10 23:00:00 26.4 5 Noroeste 9 Noroeste 0 -- -- 34
2019-08-10 22:00:00 28.7 3 Oeste 11 Sudoeste 0 -- -- 33
2019-08-10 21:00:00 30.6 8 Sudoeste 18 Sudoeste 0 -- -- 33
2019-08-10 20:00:00 32.3 9 Sudoeste 26 Sudoeste 0 -- -- 32
2019-08-10 19:00:00 32.9 18 Sudoeste 33 Sudoeste 0 -- -- 32
2019-08-10 18:00:00 32.7 14 Sudoeste 37 Sudoeste 0 -- -- 32
2019-08-10 17:00:00 32.6 15 Sudoeste 36 Sudoeste 0 -- -- 33
2019-08-10 16:00:00 32.2 19 Sudoeste 33 Sur 0 -- -- 35
2019-08-10 15:00:00 30.9 14 Sur 31 Sur 0 -- -- 40
2019-08-10 14:00:00 30.1 18 Sur 27 Sur 0 -- -- 41
2019-08-10 13:00:00 27.9 7 Sudoeste 21 Sudeste 0 -- -- 47
2019-08-10 12:00:00 26.2 9 Sur 18 Este 0 -- -- 49
2019-08-10 11:00:00 23.4 4 Sudoeste 13 Sudoeste 0 -- -- 52
2019-08-10 10:00:00 21.2 6 Noroeste 11 Norte 0 -- -- 56
2019-08-10 09:00:00 19.3 6 Norte 14 Noroeste 0 -- -- 70
2019-08-10 08:00:00 18 6 Noroeste 12 Norte 0 -- -- 76
2019-08-10 07:00:00 18.2 6 Noroeste 12 Noroeste 0 -- -- 76
2019-08-10 06:00:00 18.9 7 Noroeste 12 Noroeste 0 -- -- 75
2019-08-10 05:00:00 19.4 6 Noroeste 13 Noroeste 0 -- -- 75
2019-08-10 04:00:00 20.4 3 Norte 14 Noroeste 0 -- -- 73
2019-08-10 03:00:00 20.8 8 Norte 14 Norte 0 -- -- 71
2019-08-10 02:00:00 21.9 7 Noroeste 16 Noroeste 0 -- -- 67
2019-08-10 01:00:00 22.9 8 Noroeste 18 Norte 0 -- -- 65
2019-08-10 00:00:00 24.2 11 Norte 20 Norte 0 -- -- 65
2019-08-09 23:00:00 25.7 15 Noroeste 28 Noroeste 0 -- -- 60
2019-08-09 22:00:00 28 15 Noroeste 33 Noroeste 0 -- -- 42
2019-08-09 21:00:00 30.1 13 Noroeste 30 Noroeste 0 -- -- 40
2019-08-09 20:00:00 32.1 12 Sudoeste 39 Sudoeste 0 -- -- 32
2019-08-09 19:00:00 33.6 12 Sudoeste 32 Oeste 0 -- -- 31
2019-08-09 18:00:00 33.7 16 Sudoeste 37 Oeste 0 -- -- 30
2019-08-09 17:00:00 33.8 16 Sudoeste 40 Sudoeste 0 -- -- 30
2019-08-09 16:00:00 32.8 18 Sudoeste 38 Sudoeste 0 -- -- 30
2019-08-09 15:00:00 32.5 15 Sudoeste 34 Sudoeste 0 -- -- 30
2019-08-09 14:00:00 31 16 Sudoeste 31 Sudoeste 0 -- -- 36
2019-08-09 13:00:00 29.3 10 Sudoeste 28 Sudoeste 0 -- -- 40
2019-08-09 12:00:00 28.1 15 Sudoeste 31 Sudoeste 0 -- -- 42
2019-08-09 11:00:00 26.6 12 Sudoeste 25 Sudoeste 0 -- -- 46
2019-08-09 10:00:00 22.6 6 Sur 9 Sur 0 -- -- 43
2019-08-09 09:00:00 18.2 4 Sudeste 6 Sudeste 0 -- -- 51
2019-08-09 08:00:00 15.7 0 Calma 3 Norte 0 -- -- 51
2019-08-09 07:00:00 16.6 0 Calma 4 Norte 0 -- -- 50
2019-08-09 06:00:00 17 0 Calma 5 Noroeste 0 -- -- 48
2019-08-09 05:00:00 17.9 0 Calma 9 Noroeste 0 -- -- 48
2019-08-09 04:00:00 18.8 3 Norte 6 Noroeste 0 -- -- 46
2019-08-09 03:00:00 20.1 5 Norte 7 Norte 0 -- -- 43
2019-08-09 02:00:00 21.1 0 Calma 5 Sudeste 0 -- -- 41
2019-08-09 01:00:00 23.2 0 Calma 8 Noroeste 0 -- -- 38
2019-08-09 00:00:00 25.4 4 Norte 10 Noroeste 0 -- -- 35
2019-08-08 23:00:00 27.1 3 Noroeste 7 Oeste 0 -- -- 33
2019-08-08 22:00:00 29.3 2 Oeste 13 Sudoeste 0 -- -- 30
2019-08-08 21:00:00 31.4 11 Sudoeste 26 Sur 0 -- -- 28
2019-08-08 20:00:00 33.2 12 Sudoeste 27 Sudoeste 0 -- -- 27
2019-08-08 19:00:00 34.1 21 Sudoeste 35 Sur 0 -- -- 27
2019-08-08 18:00:00 34 14 Sudoeste 32 Sudoeste 0 -- -- 28
2019-08-08 17:00:00 33.3 15 Sudoeste 31 Sur 0 -- -- 29
2019-08-08 16:00:00 32.9 16 Sudoeste 33 Sur 0 -- -- 31
2019-08-08 15:00:00 31.8 11 Sudoeste 31 Sur 0 -- -- 34
2019-08-08 14:00:00 30.6 11 Sur 27 Sudoeste 0 -- -- 35
2019-08-08 13:00:00 29.1 9 Sur 18 Sur 0 -- -- 38
2019-08-08 12:00:00 27 10 Sudoeste 21 Sudoeste 0 -- -- 39
2019-08-08 11:00:00 23.9 4 Noroeste 15 Noroeste 0 -- -- 50
2019-08-08 10:00:00 21.6 6 Norte 10 Norte 0 -- -- 58
2019-08-08 09:00:00 17.8 0 Calma 6 Norte 0 -- -- 67
2019-08-08 08:00:00 15.4 3 Noroeste 7 Noroeste 0 -- -- 65
2019-08-08 07:00:00 15.2 4 Noroeste 7 Noroeste 0 -- -- 60
2019-08-08 06:00:00 16.5 0 Calma 4 Sudeste 0 -- -- 60
2019-08-08 05:00:00 17.7 2 Norte 8 Norte 0 -- -- 56
2019-08-08 04:00:00 19.2 3 Norte 10 Norte 0 -- -- 55
2019-08-08 03:00:00 19.9 4 Norte 9 Norte 0 -- -- 54
2019-08-08 02:00:00 20.5 3 Nordeste 4 Norte 0 -- -- 52
2019-08-08 01:00:00 21.4 3 Nordeste 17 Noroeste 0 -- -- 48
2019-08-08 00:00:00 23 11 Noroeste 17 Noroeste 0 -- -- 47
2019-08-07 23:00:00 24.2 6 Noroeste 20 Noroeste 0 -- -- 44
2019-08-07 22:00:00 25.2 11 Noroeste 21 Oeste 0 -- -- 42
2019-08-07 21:00:00 25.8 13 Noroeste 30 Noroeste 0 -- -- 40
2019-08-07 20:00:00 27.3 14 Noroeste 33 Noroeste 0 -- -- 34
2019-08-07 19:00:00 28.3 11 Noroeste 32 Noroeste 0 -- -- 32
2019-08-07 18:00:00 29 10 Noroeste 32 Noroeste 0 -- -- 32
2019-08-07 17:00:00 29.5 19 Noroeste 37 Noroeste 0 -- -- 31
2019-08-07 16:00:00 31.5 13 Noroeste 33 Norte 0 -- -- 26
2019-08-07 15:00:00 31.5 10 Oeste 32 Noroeste 0 -- -- 26
2019-08-07 14:00:00 30.7 11 Oeste 33 Sudoeste 0 -- -- 26
2019-08-07 13:00:00 29.4 8 Oeste 24 Sudoeste 0 -- -- 30
2019-08-07 12:00:00 29 10 Sudoeste 28 Sudoeste 0 -- -- 29
2019-08-07 11:00:00 26.2 12 Sudoeste 23 Sudoeste 0 -- -- 37
2019-08-07 10:00:00 22.5 12 Sur 18 Sur 0 -- -- 39
2019-08-07 09:00:00 17.3 2 Sudeste 4 Sur 0 -- -- 36
2019-08-07 08:00:00 15.2 0 Calma 5 Noroeste 0 -- -- 32
2019-08-07 07:00:00 15.7 0 Calma 3 Norte 0 -- -- 32
2019-08-07 06:00:00 16.3 0 Calma 6 Norte 0 -- -- 30
2019-08-07 05:00:00 17.3 2 Norte 5 Norte 0 -- -- 28
2019-08-07 04:00:00 17.8 2 Norte 5 Noroeste 0 -- -- 26
2019-08-07 03:00:00 18.6 2 Este 4 Sudeste 0 -- -- 26
2019-08-07 02:00:00 19.7 3 Sudeste 5 Sur 0 -- -- 24
2019-08-07 01:00:00 23 0 Calma 12 Noroeste 0 -- -- 21
2019-08-07 00:00:00 25 6 Noroeste 13 Noroeste 0 -- -- 20
2019-08-06 23:00:00 26.1 6 Noroeste 12 Noroeste 0 -- -- 20
2019-08-06 22:00:00 28.7 4 Noroeste 9 Oeste 0 -- -- 17
2019-08-06 21:00:00 31.8 7 Sudoeste 27 Sudoeste 0 -- -- 13
2019-08-06 20:00:00 33.9 18 Sudoeste 33 Sudoeste 0 -- -- 11
2019-08-06 19:00:00 35.3 17 Sudoeste 37 Sur 0 -- -- 11
2019-08-06 18:00:00 35.4 16 Sudoeste 36 Sur 0 -- -- 13
2019-08-06 17:00:00 35.4 19 Sudoeste 34 Sur 0 -- -- 14
2019-08-06 16:00:00 35.3 18 Sudoeste 39 Sudoeste 0 -- -- 15
2019-08-06 15:00:00 34.4 13 Sudoeste 32 Sudoeste 0 -- -- 18
2019-08-06 14:00:00 33.3 14 Sur 40 Sudoeste 0 -- -- 21
2019-08-06 13:00:00 32 15 Sudoeste 27 Sur 0 -- -- 22
2019-08-06 12:00:00 30.2 10 Sur 19 Sur 0 -- -- 22
2019-08-06 11:00:00 26.4 6 Sudeste 15 Sur 0 -- -- 27
2019-08-06 10:00:00 22.7 5 Sudeste 13 Sur 0 -- -- 31
2019-08-06 09:00:00 17.3 2 Sur 4 Noroeste 0 -- -- 41
2019-08-06 08:00:00 14.9 3 Norte 5 Noroeste 0 -- -- 41
2019-08-06 07:00:00 15.4 3 Noroeste 5 Noroeste 0 -- -- 39
2019-08-06 06:00:00 16.6 4 Noroeste 6 Noroeste 0 -- -- 37
2019-08-06 05:00:00 17.9 2 Este 5 Este 0 -- -- 36
2019-08-06 04:00:00 18.9 3 Sudeste 8 Sur 0 -- -- 33
2019-08-06 03:00:00 21.2 0 Calma 10 Norte 0 -- -- 31
2019-08-06 02:00:00 22.5 4 Norte 11 Noroeste 0 -- -- 29
2019-08-06 01:00:00 23.6 4 Norte 6 Norte 0 -- -- 27
2019-08-06 00:00:00 25.6 2 Norte 8 Norte 0 -- -- 24
2019-08-05 23:00:00 26.6 0 Calma 6 Noroeste 0 -- -- 23
2019-08-05 22:00:00 29.2 4 Noroeste 7 Oeste 0 -- -- 21
2019-08-05 21:00:00 32.8 4 Sudoeste 21 Sur 0 -- -- 18
2019-08-05 20:00:00 34.7 11 Sudoeste 22 Sur 0 -- -- 17
2019-08-05 19:00:00 35.8 17 Sudoeste 27 Sur 0 -- -- 16
2019-08-05 18:00:00 36.5 12 Sudoeste 27 Sur 0 -- -- 16
2019-08-05 17:00:00 36.3 8 Sur 28 Sur 0 -- -- 15
2019-08-05 16:00:00 35 7 Oeste 26 Sudoeste 0 -- -- 18
2019-08-05 15:00:00 34.9 9 Sur 23 Sudoeste 0 -- -- 21
2019-08-05 14:00:00 34.3 15 Sur 35 Sur 0 -- -- 24
2019-08-05 13:00:00 32.4 9 Sur 16 Sur 0 -- -- 27
2019-08-05 12:00:00 28.8 4 Norte 9 Norte 0 -- -- 38
2019-08-05 11:00:00 26 2 Sudeste 8 Sur 0 -- -- 47
2019-08-05 10:00:00 23.2 4 Sudeste 7 Sur 0 -- -- 59
2019-08-05 09:00:00 19.1 2 Noroeste 4 Noroeste 0 -- -- 62
2019-08-05 08:00:00 16 3 Norte 9 Noroeste 0 -- -- 56
2019-08-05 07:00:00 16.2 4 Norte 8 Noroeste 0 -- -- 47
2019-08-05 06:00:00 16.8 5 Noroeste 8 Noroeste 0 -- -- 42
2019-08-05 05:00:00 17.9 5 Norte 7 Norte 0 -- -- 34
2019-08-05 04:00:00 18.7 3 Noroeste 6 Norte 0 -- -- 31
2019-08-05 03:00:00 20 3 Noroeste 7 Sudeste 0 -- -- 30
2019-08-05 02:00:00 21 3 Este 8 Norte 0 -- -- 27
2019-08-05 01:00:00 23.6 4 Norte 8 Noroeste 0 -- -- 25
2019-08-05 00:00:00 24.9 5 Noroeste 10 Norte 0 -- -- 25
2019-08-04 23:00:00 26.4 6 Norte 14 Noroeste 0 -- -- 24
2019-08-04 22:00:00 29.3 4 Noroeste 10 Sudoeste 0 -- -- 23
2019-08-04 21:00:00 32.2 7 Sudoeste 18 Sudoeste 0 -- -- 21
2019-08-04 20:00:00 34.4 14 Sur 24 Sudoeste 0 -- -- 20
2019-08-04 19:00:00 35.6 16 Sudoeste 28 Sur 0 -- -- 18
2019-08-04 18:00:00 36 10 Sudoeste 37 Sur 0 -- -- 20
2019-08-04 17:00:00 35.7 9 Sudoeste 37 Sur 0 -- -- 22
2019-08-04 16:00:00 35.4 15 Sudoeste 32 Sudoeste 0 -- -- 21
2019-08-04 15:00:00 34.3 10 Sudoeste 34 Sur 0 -- -- 21
2019-08-04 14:00:00 33.9 13 Sudoeste 30 Sudoeste 0 -- -- 22
2019-08-04 13:00:00 33.2 16 Sur 25 Sur 0 -- -- 24
2019-08-04 12:00:00 30.4 11 Sudeste 18 Sur 0 -- -- 30
2019-08-04 11:00:00 26.1 5 Sur 10 Sur 0 -- -- 39
2019-08-04 10:00:00 23.1 6 Sudeste 10 Sudeste 0 -- -- 50
2019-08-04 09:00:00 18.9 2 Noroeste 8 Noroeste 0 -- -- 63
2019-08-04 08:00:00 16.5 3 Noroeste 7 Norte 0 -- -- 62
2019-08-04 07:00:00 16.1 3 Noroeste 9 Noroeste 0 -- -- 59
2019-08-04 06:00:00 17.2 5 Norte 8 Norte 0 -- -- 53
2019-08-04 05:00:00 17.7 3 Noroeste 6 Norte 0 -- -- 40
2019-08-04 04:00:00 18.5 4 Noroeste 7 Noroeste 0 -- -- 34
2019-08-04 03:00:00 20.4 0 Calma 7 Noroeste 0 -- -- 30
2019-08-04 02:00:00 21.8 5 Norte 9 Noroeste 0 -- -- 28
2019-08-04 01:00:00 24 4 Norte 13 Este 0 -- -- 26
2019-08-04 00:00:00 25.4 4 Este 15 Norte 0 -- -- 24
2019-08-03 23:00:00 28.6 8 Noroeste 15 Noroeste 0 -- -- 22
2019-08-03 22:00:00 29.6 4 Oeste 9 Sudoeste 0 -- -- 21
2019-08-03 21:00:00 32.2 8 Sudoeste 21 Sur 0 -- -- 19
2019-08-03 20:00:00 34.4 13 Sudoeste 27 Sudoeste 0 -- -- 18
2019-08-03 19:00:00 35.7 14 Sudoeste 31 Sudoeste 0 -- -- 17
2019-08-03 18:00:00 36 19 Sudoeste 37 Sur 0 -- -- 18
2019-08-03 17:00:00 36.1 17 Sur 34 Sur 0 -- -- 19
2019-08-03 16:00:00 35.5 10 Sudoeste 27 Sur 0 -- -- 19
2019-08-03 15:00:00 34.9 9 Sudeste 22 Sur 0 -- -- 21
2019-08-03 14:00:00 33.6 9 Sudeste 21 Sudoeste 0 -- -- 24
2019-08-03 13:00:00 31.5 10 Sur 21 Sur 0 -- -- 28
2019-08-03 12:00:00 28.9 9 Sur 18 Sur 0 -- -- 35
2019-08-03 11:00:00 26.2 8 Sudeste 19 Sur 0 -- -- 48
2019-08-03 10:00:00 24 12 Sudeste 17 Sudeste 0 -- -- 54
2019-08-03 09:00:00 20.7 8 Sudeste 15 Sudeste 0 -- -- 59
2019-08-03 08:00:00 18.5 4 Sur 13 Este 0 -- -- 61
2019-08-03 07:00:00 19.2 6 Sudeste 15 Sudeste 0 -- -- 58
2019-08-03 06:00:00 19.9 6 Sudeste 14 Sudeste 0 -- -- 57
2019-08-03 05:00:00 20.5 8 Sudeste 17 Este 0 -- -- 53
2019-08-03 04:00:00 21.3 2 Sur 17 Este 0 -- -- 50
2019-08-03 03:00:00 22.3 5 Sudeste 17 Este 0 -- -- 55
2019-08-03 02:00:00 23.9 4 Sudeste 20 Este 0 -- -- 54
2019-08-03 01:00:00 24 4 Sudeste 10 Sudeste 0 -- -- 52
2019-08-03 00:00:00 23.2 3 Sudeste 7 Este 0 -- -- 28
2019-08-02 23:00:00 25.1 2 Nordeste 7 Noroeste 0 -- -- 25
2019-08-02 22:00:00 28.8 0 Calma 5 Noroeste 0 -- -- 22
2019-08-02 21:00:00 32.6 2 Oeste 12 Sur 0 -- -- 20
2019-08-02 20:00:00 34.6 6 Sur 20 Sudoeste 0 -- -- 18
2019-08-02 19:00:00 36.4 9 Sur 16 Sur 0 -- -- 17
2019-08-02 18:00:00 35.8 6 Sudoeste 23 Noroeste 0 -- -- 17
2019-08-02 17:00:00 35.4 7 Sur 23 Sur 0 -- -- 18
2019-08-02 16:00:00 34.6 8 Oeste 22 Sudoeste 0 -- -- 20
2019-08-02 15:00:00 33.6 13 Sudoeste 23 Sur 0 -- -- 21
2019-08-02 14:00:00 32.9 9 Sur 27 Sudoeste 0 -- -- 24
2019-08-02 13:00:00 31.6 10 Sur 19 Sur 0 -- -- 27
2019-08-02 12:00:00 29.2 9 Sur 16 Sur 0 -- -- 32
2019-08-02 11:00:00 25.3 6 Sur 13 Sur 0 -- -- 43
2019-08-02 10:00:00 22.7 7 Sudeste 13 Sur 0 -- -- 55
2019-08-02 09:00:00 17.8 2 Noroeste 3 Oeste 0 -- -- 49
2019-08-02 08:00:00 14.6 0 Calma 4 Noroeste 0 -- -- 45
2019-08-02 07:00:00 14.9 3 Norte 5 Noroeste 0 -- -- 43
2019-08-02 06:00:00 15.8 0 Calma 5 Norte 0 -- -- 41
2019-08-02 05:00:00 16.5 0 Calma 6 Sudeste 0 -- -- 39
2019-08-02 04:00:00 18.9 0 Calma 4 Norte 0 -- -- 36
2019-08-02 03:00:00 21.2 4 Norte 6 Norte 0 -- -- 32
2019-08-02 02:00:00 22.7 5 Norte 9 Norte 0 -- -- 29
2019-08-02 01:00:00 23.7 6 Norte 12 Noroeste 0 -- -- 26
2019-08-02 00:00:00 24.6 7 Noroeste 11 Noroeste 0 -- -- 26
2019-08-01 23:00:00 25.8 4 Norte 15 Noroeste 0 -- -- 26
2019-08-01 22:00:00 28.7 6 Noroeste 14 Sudoeste 0 -- -- 23
2019-08-01 21:00:00 31.5 5 Oeste 22 Sudoeste 0 -- -- 20
2019-08-01 20:00:00 33.4 5 Oeste 24 Sudoeste 0 -- -- 19
2019-08-01 19:00:00 34.8 18 Sur 30 Sur 0 -- -- 22
2019-08-01 18:00:00 35 19 Sudoeste 35 Sur 0 -- -- 22
2019-08-01 17:00:00 34.2 8 Sudoeste 36 Sur 0 -- -- 23
2019-08-01 16:00:00 33.7 7 Sur 27 Sudoeste 0 -- -- 24
2019-08-01 15:00:00 32.7 13 Sudoeste 27 Sur 0 -- -- 28
2019-08-01 14:00:00 30.9 5 Sudoeste 20 Sudoeste 0 -- -- 31
2019-08-01 13:00:00 29.3 12 Sur 28 Sur 0 -- -- 41
2019-08-01 12:00:00 26.8 13 Sur 25 Sur 0 -- -- 49
2019-08-01 11:00:00 24.4 15 Sudeste 27 Sur 0 -- -- 58
2019-08-01 10:00:00 21.9 14 Sudeste 27 Este 0 -- -- 67
2019-08-01 09:00:00 19.3 16 Sudeste 24 Sudeste 0 -- -- 77
2019-08-01 08:00:00 17.6 15 Sudeste 26 Sudeste 0 -- -- 83
2019-08-01 07:00:00 17.6 12 Sudeste 24 Este 0 -- -- 81
2019-08-01 06:00:00 17.9 13 Sudeste 28 Este 0 -- -- 79
2019-08-01 05:00:00 18.3 18 Sudeste 34 Sudeste 0 -- -- 75
2019-08-01 04:00:00 18.7 18 Sudeste 34 Este 0 -- -- 76
2019-08-01 03:00:00 19.2 19 Sudeste 35 Este 0 -- -- 76
2019-08-01 02:00:00 19.8 17 Sudeste 35 Sudeste 0 -- -- 74
2019-08-01 01:00:00 20.5 20 Este 34 Este 0 -- -- 70
2019-08-01 00:00:00 21.3 21 Este 39 Este 0 -- -- 67
2019-07-31 23:00:00 22.7 21 Este 40 Sudeste 0 -- -- 64
2019-07-31 22:00:00 24.2 21 Este 34 Sudeste 0 -- -- 61
2019-07-31 21:00:00 26.4 19 Este 36 Sudeste 0 -- -- 56
2019-07-31 20:00:00 28.9 22 Este 40 Sudeste 0 -- -- 48
2019-07-31 19:00:00 30.9 26 Sudeste 46 Este 0 -- -- 43
2019-07-31 18:00:00 32.2 28 Sudeste 48 Sudeste 0 -- -- 36
2019-07-31 17:00:00 31.2 28 Sudeste 43 Sudeste 0 -- -- 37
2019-07-31 16:00:00 32.2 27 Sudeste 48 Sudeste 0 -- -- 35
2019-07-31 15:00:00 30.9 26 Sudeste 45 Sudeste 0 -- -- 39
2019-07-31 14:00:00 29.8 28 Sudeste 46 Sudeste 0 -- -- 39
2019-07-31 13:00:00 28 31 Sudeste 50 Este 0 -- -- 42
2019-07-31 12:00:00 26.4 30 Sudeste 45 Sudeste 0 -- -- 46
2019-07-31 11:00:00 24.1 30 Sudeste 48 Sudeste 0 -- -- 56
2019-07-31 10:00:00 22.1 24 Sudeste 42 Sudeste 0 -- -- 68
2019-07-31 09:00:00 20.3 18 Sudeste 38 Este 0 -- -- 76
2019-07-31 08:00:00 19.2 18 Este 36 Este 0 -- -- 79
2019-07-31 07:00:00 19.1 15 Sudeste 28 Este 0 -- -- 80
2019-07-31 06:00:00 19.4 15 Sudeste 30 Este 0 -- -- 79
2019-07-31 05:00:00 19.3 20 Este 37 Este 0 -- -- 74
2019-07-31 04:00:00 20 18 Este 38 Sudeste 0 -- -- 69
2019-07-31 03:00:00 20.9 19 Este 37 Este 0 -- -- 62
2019-07-31 02:00:00 21.6 17 Este 32 Este 0 -- -- 61
2019-07-31 01:00:00 22.3 17 Este 32 Sudeste 0 -- -- 62
2019-07-31 00:00:00 24.2 13 Este 22 Este 0 -- -- 60
2019-07-30 23:00:00 23.3 5 Sudeste 17 Sudeste 0 -- -- 24
2019-07-30 22:00:00 26.6 6 Noroeste 12 Norte 0 -- -- 22
2019-07-30 21:00:00 29.6 7 Norte 15 Noroeste 0 -- -- 20
2019-07-30 20:00:00 31.4 6 Norte 21 Noroeste 0 -- -- 19
2019-07-30 19:00:00 32.9 9 Noroeste 19 Sudoeste 0 -- -- 18
2019-07-30 18:00:00 32.7 6 Sudoeste 23 Sur 0 -- -- 19
2019-07-30 17:00:00 32.4 9 Sudoeste 22 Sudoeste 0 -- -- 20
2019-07-30 16:00:00 31.8 8 Sur 22 Sudoeste 0 -- -- 22
2019-07-30 15:00:00 30.8 8 Sudoeste 27 Sudoeste 0 -- -- 22
2019-07-30 14:00:00 30 7 Sur 18 Sudoeste 0 -- -- 26
2019-07-30 13:00:00 28.6 8 Sudoeste 17 Sur 0 -- -- 26
2019-07-30 12:00:00 26.1 5 Norte 12 Norte 0 -- -- 29
2019-07-30 11:00:00 23.6 6 Norte 19 Norte 0 -- -- 33
2019-07-30 10:00:00 21.5 11 Norte 21 Norte 0 -- -- 36
2019-07-30 09:00:00 18.8 12 Noroeste 20 Norte 0 -- -- 39
2019-07-30 08:00:00 15.7 3 Norte 10 Norte 0 -- -- 44
2019-07-30 07:00:00 16 6 Norte 14 Noroeste 0 -- -- 42
2019-07-30 06:00:00 16.9 7 Noroeste 11 Noroeste 0 -- -- 40
2019-07-30 05:00:00 17.7 3 Norte 12 Norte 0 -- -- 37
2019-07-30 04:00:00 18.5 6 Norte 10 Noroeste 0 -- -- 36
2019-07-30 03:00:00 19.9 4 Norte 12 Norte 0 -- -- 34
2019-07-30 02:00:00 20.2 4 Norte 10 Nordeste 0 -- -- 32
2019-07-30 01:00:00 22.1 5 Norte 15 Noroeste 0 -- -- 31
2019-07-30 00:00:00 23.5 9 Noroeste 16 Noroeste 0 -- -- 30
2019-07-29 23:00:00 25 7 Noroeste 15 Noroeste 0 -- -- 28
2019-07-29 22:00:00 27.6 6 Oeste 20 Sudoeste 0 -- -- 20
2019-07-29 21:00:00 29.9 8 Oeste 22 Noroeste 0 -- -- 18
2019-07-29 20:00:00 31.7 13 Sudoeste 27 Sudoeste 0 -- -- 17
2019-07-29 19:00:00 33.2 9 Oeste 34 Sudoeste 0 -- -- 19
2019-07-29 18:00:00 33.2 12 Oeste 35 Sudoeste 0 -- -- 22
2019-07-29 17:00:00 32.7 9 Oeste 28 Sudoeste 0 -- -- 22
2019-07-29 16:00:00 32.1 18 Sudoeste 34 Sur 0 -- -- 28
2019-07-29 15:00:00 32.1 17 Sur 33 Sur 0 -- -- 28
2019-07-29 14:00:00 30.3 16 Sudoeste 35 Sudoeste 0 -- -- 31
2019-07-29 13:00:00 29.1 10 Sur 26 Sudoeste 0 -- -- 32
2019-07-29 12:00:00 27.7 10 Sur 19 Sudoeste 0 -- -- 35
2019-07-29 11:00:00 24.6 5 Sur 13 Sudeste 0 -- -- 40
2019-07-29 10:00:00 22.2 6 Sur 12 Sur 0 -- -- 44
2019-07-29 09:00:00 17.6 0 Calma 5 Noroeste 0 -- -- 49
2019-07-29 08:00:00 14.3 3 Norte 5 Noroeste 0 -- -- 49
2019-07-29 07:00:00 14.6 2 Norte 5 Norte 0 -- -- 48
2019-07-29 06:00:00 14.9 2 Norte 8 Noroeste 0 -- -- 47
2019-07-29 05:00:00 15.3 3 Norte 7 Noroeste 0 -- -- 45
2019-07-29 04:00:00 15.8 2 Noroeste 6 Norte 0 -- -- 43
2019-07-29 03:00:00 16.7 4 Norte 8 Noroeste 0 -- -- 42
2019-07-29 02:00:00 17.7 3 Norte 5 Noroeste 0 -- -- 40
2019-07-29 01:00:00 18.8 3 Norte 5 Noroeste 0 -- -- 38
2019-07-29 00:00:00 19.9 0 Calma 10 Norte 0 -- -- 36
2019-07-28 23:00:00 22.1 5 Noroeste 7 Noroeste 0 -- -- 33
2019-07-28 22:00:00 25 3 Noroeste 8 Noroeste 0 -- -- 31
2019-07-28 21:00:00 27.3 4 Noroeste 14 Noroeste 0 -- -- 28
2019-07-28 20:00:00 28.9 6 Noroeste 17 Sur 0 -- -- 25
2019-07-28 19:00:00 30.3 5 Sudoeste 21 Norte 0 -- -- 25
2019-07-28 18:00:00 29.6 8 Noroeste 20 Oeste 0 -- -- 27
2019-07-28 17:00:00 29.1 6 Noroeste 22 Noroeste 0 -- -- 27
2019-07-28 16:00:00 28 7 Oeste 23 Noroeste 0 -- -- 28
2019-07-28 15:00:00 27.3 9 Sudoeste 23 Sur 0 -- -- 29
2019-07-28 14:00:00 25.9 9 Noroeste 22 Norte 0 -- -- 32
2019-07-28 13:00:00 24.6 10 Noroeste 21 Norte 0 -- -- 36
2019-07-28 12:00:00 22.8 8 Norte 20 Norte 0 -- -- 40
2019-07-28 11:00:00 20.7 9 Norte 17 Norte 0 -- -- 43
2019-07-28 10:00:00 18.6 9 Norte 15 Norte 0 -- -- 51
2019-07-28 09:00:00 16.2 6 Norte 10 Norte 0 -- -- 61
2019-07-28 08:00:00 13.9 0 Calma 13 Noroeste 0 -- -- 69
2019-07-28 07:00:00 14 8 Noroeste 14 Norte 0 -- -- 69
2019-07-28 06:00:00 15 8 Noroeste 15 Norte 0 -- -- 66
2019-07-28 05:00:00 15 4 Norte 10 Norte 0 -- -- 64
2019-07-28 04:00:00 15.6 2 Norte 6 Noroeste 0 -- -- 59
2019-07-28 03:00:00 16.9 3 Noroeste 5 Noroeste 0 -- -- 57
2019-07-28 02:00:00 18.6 5 Noroeste 11 Noroeste 0 -- -- 54
2019-07-28 01:00:00 19.3 5 Noroeste 12 Noroeste 0 -- -- 57
2019-07-28 00:00:00 20.8 3 Noroeste 17 Noroeste 0 -- -- 53
2019-07-27 23:00:00 22 6 Noroeste 28 Noroeste 0 -- -- 49
2019-07-26 12:00:00 -- -- -- -- -- -- -- -- --
2019-07-26 11:00:00 -- -- -- -- -- -- -- -- --
2019-07-26 10:00:00 -- -- -- -- -- -- -- -- --
2019-07-26 09:00:00 20.5 3 Sudeste 4 Sudeste 0 -- -- 57
2019-07-26 08:00:00 19.1 0 Calma 9 Sudoeste 0 -- -- 63
2019-07-26 07:00:00 19.7 0 Calma 5 Noroeste 0 -- -- 68
2019-07-26 06:00:00 20.2 5 Norte 10 Noroeste 0 -- -- 58
2019-07-26 05:00:00 20 5 Norte 10 Norte 0 -- -- 61
2019-07-26 04:00:00 21.2 3 Noroeste 6 Sur 0 -- -- 61
2019-07-26 03:00:00 22.1 0 Calma 5 Norte 0 -- -- 50
2019-07-26 02:00:00 21.5 4 Noroeste 9 Noroeste 0 -- -- 62
2019-07-26 01:00:00 23 6 Noroeste 10 Noroeste 0 -- -- 61
2019-07-26 00:00:00 25.4 3 Noroeste 9 Este 0 -- -- 56
2019-07-25 23:00:00 26.9 6 Noroeste 14 Sudeste 0 -- -- 48
2019-07-25 22:00:00 27 8 Este 33 Oeste 0.8 -- -- 47
2019-07-25 21:00:00 31 6 Noroeste 40 Sudoeste 0 -- -- 43
2019-07-25 20:00:00 34.6 14 Sur 26 Sur 0 -- -- 24
2019-07-25 19:00:00 36.4 13 Sur 34 Sudeste 0 -- -- 24
2019-07-25 18:00:00 37 13 Sudeste 31 Sudoeste 0 -- -- 25
2019-07-25 17:00:00 37.1 17 Sur 31 Sur 0 -- -- 24
2019-07-25 16:00:00 35.9 18 Sur 33 Sur 0 -- -- 25
2019-07-25 15:00:00 35.7 13 Sur 32 Sur 0 -- -- 25
2019-07-25 14:00:00 34.1 11 Sudoeste 23 Sur 0 -- -- 27
2019-07-25 13:00:00 33 10 Sur 22 Sur 0 -- -- 29
2019-07-25 12:00:00 31.2 9 Sur 18 Sudeste 0 -- -- 33
2019-07-25 11:00:00 29 9 Sur 18 Sur 0 -- -- 37
2019-07-25 10:00:00 26.7 9 Sur 15 Sur 0 -- -- 40
2019-07-25 09:00:00 22.1 0 Calma 3 Sur 0 -- -- 45
2019-07-25 08:00:00 20.3 0 Calma 5 Sudoeste 0 -- -- 47
2019-07-25 07:00:00 20.7 2 Oeste 9 Sudeste 0 -- -- 45
2019-07-25 06:00:00 21.6 6 Sur 14 Este 0 -- -- 42
2019-07-25 05:00:00 22.6 11 Sudeste 17 Este 0 -- -- 40
2019-07-25 04:00:00 23.2 2 Sudeste 23 Sudeste 0 -- -- 38
2019-07-25 03:00:00 24.6 14 Sudeste 29 Sudeste 0 -- -- 36
2019-07-25 02:00:00 25.5 20 Sudeste 37 Este 0 -- -- 34
2019-07-25 01:00:00 26.3 20 Este 33 Sudeste 0 -- -- 32
2019-07-25 00:00:00 27.4 19 Sudeste 38 Este 0 -- -- 30
2019-07-24 23:00:00 28.8 22 Sudeste 39 Sudeste 0 -- -- 26
2019-07-24 22:00:00 30.5 24 Sudeste 40 Sudeste 0 -- -- 25
2019-07-24 21:00:00 32.7 24 Sudeste 39 Sudeste 0 -- -- 22
2019-07-24 20:00:00 35.1 23 Sudeste 38 Sudeste 0 -- -- 21
2019-07-24 19:00:00 37 23 Sudeste 35 Este 0 -- -- 20
2019-07-24 18:00:00 37.6 19 Sudeste 34 Sudeste 0 -- -- 19
2019-07-24 17:00:00 37.6 18 Sudeste 40 Este 0 -- -- 20
2019-07-24 16:00:00 37.5 17 Sudeste 38 Sudeste 0 -- -- 19
2019-07-24 15:00:00 36.4 22 Sudeste 40 Sur 0 -- -- 20
2019-07-24 14:00:00 35.3 26 Sudeste 41 Sudeste 0 -- -- 22
2019-07-24 13:00:00 33.9 23 Sudeste 41 Sudeste 0 -- -- 23
2019-07-24 12:00:00 31.9 21 Sudeste 34 Sudeste 0 -- -- 24
2019-07-24 11:00:00 29.6 17 Sudeste 27 Sudeste 0 -- -- 27
2019-07-24 10:00:00 26.7 14 Sudeste 24 Sudeste 0 -- -- 33
2019-07-24 09:00:00 23.1 13 Sudeste 21 Sudeste 0 -- -- 41
2019-07-24 08:00:00 20 0 Calma 8 Sudoeste 0 -- -- 50
2019-07-24 07:00:00 19.8 3 Sudoeste 9 Sudeste 0 -- -- 52
2019-07-24 06:00:00 19.9 3 Noroeste 6 Noroeste 0 -- -- 58
2019-07-24 05:00:00 21 2 Noroeste 6 Noroeste 0 -- -- 55
2019-07-24 04:00:00 22.1 4 Nordeste 17 Nordeste 0 -- -- 52
2019-07-24 03:00:00 23 10 Nordeste 17 Nordeste 0 -- -- 51
2019-07-24 02:00:00 23.2 8 Norte 14 Norte 0 -- -- 50
2019-07-24 01:00:00 25.9 7 Nordeste 28 Norte 0 -- -- 35
2019-07-24 00:00:00 23 4 Este 9 Este 0 -- -- 50
2019-07-23 23:00:00 23.9 4 Noroeste 20 Nordeste 0 -- -- 56
2019-07-23 22:00:00 24.6 7 Noroeste 57 Sudoeste 1.2 -- -- 50
2019-07-23 21:00:00 29.7 11 Sur 21 Sur 0 -- -- 26
2019-07-23 20:00:00 30.5 10 Nordeste 41 Sudeste 0 -- -- 28
2019-07-23 19:00:00 33.7 29 Sudeste 51 Sudeste 0 -- -- 20
2019-07-23 18:00:00 37.2 30 Sudeste 49 Sudeste 0 -- -- 18
2019-07-23 17:00:00 36.7 32 Sudeste 54 Este 0 -- -- 19
2019-07-23 16:00:00 35.3 29 Sudeste 46 Sudeste 0 -- -- 21
2019-07-23 15:00:00 35.1 24 Sudeste 45 Sudeste 0 -- -- 21
2019-07-23 14:00:00 35 26 Sudeste 42 Sudeste 0 -- -- 22
2019-07-23 13:00:00 33.1 26 Sudeste 42 Sudeste 0 -- -- 24
2019-07-23 12:00:00 30.8 24 Sudeste 40 Este 0 -- -- 26
2019-07-23 11:00:00 28.4 19 Sudeste 34 Sudeste 0 -- -- 29
2019-07-23 10:00:00 26.8 17 Sudeste 27 Este 0 -- -- 29
2019-07-23 09:00:00 23.6 17 Este 35 Este 0 -- -- 36
2019-07-23 08:00:00 21.9 6 Sudeste 20 Este 0 -- -- 40
2019-07-23 07:00:00 21 12 Sudeste 29 Este 0 -- -- 42
2019-07-23 06:00:00 21.2 11 Este 24 Sudeste 0 -- -- 43
2019-07-23 05:00:00 21.2 3 Nordeste 12 Este 0 -- -- 42
2019-07-23 04:00:00 22.2 2 Este 26 Sudeste 0 -- -- 40
2019-07-23 03:00:00 23.1 14 Este 24 Sudeste 0 -- -- 40
2019-07-23 02:00:00 23.7 12 Sudeste 20 Sudeste 0 -- -- 42
2019-07-23 01:00:00 24.2 8 Sudeste 17 Este 0 -- -- 44
2019-07-23 00:00:00 25.4 7 Sudeste 29 Este 0 -- -- 43
2019-07-22 23:00:00 27.1 19 Este 38 Este 0 -- -- 41
2019-07-22 22:00:00 30.1 17 Sudeste 40 Sudeste 0 -- -- 26
2019-07-22 21:00:00 32.2 28 Sudeste 48 Sudeste 0 -- -- 17
2019-07-22 20:00:00 34.2 28 Sudeste 50 Sudeste 0 -- -- 17
2019-07-22 19:00:00 35.6 31 Sudeste 48 Sudeste 0 -- -- 19
2019-07-22 18:00:00 36.4 32 Sudeste 52 Este 0 -- -- 21
2019-07-22 17:00:00 36.3 29 Sudeste 49 Sudeste 0 -- -- 22
2019-07-22 16:00:00 35.9 28 Sudeste 57 Sudeste 0 -- -- 23
2019-07-22 15:00:00 34.9 24 Sudeste 43 Sudeste 0 -- -- 24
2019-07-22 14:00:00 33.3 25 Sudeste 41 Sudeste 0 -- -- 26
2019-07-22 13:00:00 31.8 23 Sudeste 42 Este 0 -- -- 28
2019-07-22 12:00:00 29.9 21 Sudeste 36 Sudeste 0 -- -- 30
2019-07-22 11:00:00 27.9 21 Sudeste 37 Sudeste 0 -- -- 32
2019-07-22 10:00:00 25.1 17 Sudeste 28 Este 0 -- -- 39
2019-07-22 09:00:00 22.7 10 Sudeste 22 Este 0 -- -- 44
2019-07-22 08:00:00 20.7 6 Sudeste 22 Este 0 -- -- 50
2019-07-22 07:00:00 20.5 9 Este 19 Este 0 -- -- 48
2019-07-22 06:00:00 20.4 6 Este 15 Este 0 -- -- 49
2019-07-22 05:00:00 21.1 4 Este 20 Este 0 -- -- 47
2019-07-22 04:00:00 21.7 12 Sudeste 23 Este 0 -- -- 42
2019-07-22 03:00:00 22.2 10 Sudeste 26 Este 0 -- -- 39
2019-07-22 02:00:00 23 14 Este 30 Sudeste 0 -- -- 40
2019-07-22 01:00:00 24 17 Este 30 Este 0 -- -- 41
2019-07-22 00:00:00 25.4 18 Este 31 Este 0 -- -- 41
2019-07-21 23:00:00 26.8 15 Este 32 Este 0 -- -- 37
2019-07-21 22:00:00 28.4 17 Este 37 Este 0 -- -- 39
2019-07-21 21:00:00 31 21 Este 37 Este 0 -- -- 37
2019-07-21 20:00:00 33.6 20 Este 38 Este 0 -- -- 34
2019-07-21 19:00:00 36.1 23 Sudeste 39 Sudeste 0 -- -- 28
2019-07-21 18:00:00 36.5 22 Sudeste 42 Sudeste 0 -- -- 27
2019-07-21 17:00:00 36.9 20 Sudeste 38 Sur 0 -- -- 26
2019-07-21 16:00:00 36.6 18 Sudeste 36 Sudeste 0 -- -- 26
2019-07-21 15:00:00 35.8 18 Sudeste 36 Sudeste 0 -- -- 28
2019-07-21 14:00:00 34.8 21 Sudeste 36 Sur 0 -- -- 27
2019-07-21 13:00:00 33.2 19 Sudeste 31 Sudeste 0 -- -- 31
2019-07-21 12:00:00 31.2 21 Sudeste 36 Sudeste 0 -- -- 32
2019-07-21 11:00:00 28.9 23 Sudeste 37 Sudeste 0 -- -- 34
2019-07-21 10:00:00 26.4 19 Sudeste 33 Sudeste 0 -- -- 41
2019-07-21 09:00:00 23.6 13 Sudeste 21 Sudeste 0 -- -- 49
2019-07-21 08:00:00 21.5 7 Sur 18 Sudeste 0 -- -- 56
2019-07-21 07:00:00 21.2 13 Sudeste 27 Sudeste 0 -- -- 59
2019-07-21 06:00:00 21.6 11 Sudeste 26 Este 0 -- -- 60
2019-07-21 05:00:00 22.1 18 Sudeste 32 Sudeste 0 -- -- 58
2019-07-21 04:00:00 22.5 11 Este 22 Este 0 -- -- 58
2019-07-21 03:00:00 23.3 9 Este 24 Sudeste 0 -- -- 53
2019-07-21 02:00:00 24.4 13 Sudeste 25 Este 0 -- -- 46
2019-07-21 01:00:00 25.2 11 Sudeste 26 Sudeste 0 -- -- 48
2019-07-21 00:00:00 26.2 13 Sudeste 37 Este 0 -- -- 47
2019-07-20 23:00:00 27.9 21 Sudeste 42 Sudeste 0 -- -- 45
2019-07-20 22:00:00 30.2 24 Sudeste 39 Este 0 -- -- 39
2019-07-20 21:00:00 34.8 10 Sudeste 20 Sudeste 0 -- -- 23
2019-07-20 20:00:00 36.7 8 Sudeste 22 Sur 0 -- -- 21
2019-07-20 19:00:00 38.1 8 Sur 27 Sudeste 0 -- -- 21
2019-07-20 18:00:00 38 7 Sur 25 Sur 0 -- -- 21
2019-07-20 17:00:00 37.6 9 Sur 28 Sur 0 -- -- 22
2019-07-20 16:00:00 37.2 9 Sur 27 Sudeste 0 -- -- 24
2019-07-20 15:00:00 36.5 17 Sur 28 Sur 0 -- -- 24
2019-07-20 14:00:00 35.6 18 Sur 34 Sur 0 -- -- 26
2019-07-20 13:00:00 33.7 17 Sudeste 31 Sudeste 0 -- -- 30
2019-07-20 12:00:00 31.3 22 Sur 33 Sur 0 -- -- 32
2019-07-20 11:00:00 28.9 24 Sur 35 Sudeste 0 -- -- 36
2019-07-20 10:00:00 26.1 20 Sudeste 32 Sudeste 0 -- -- 43
2019-07-20 09:00:00 23.1 20 Sudeste 32 Sudeste 0 -- -- 51
2019-07-20 08:00:00 20.3 14 Sudeste 23 Este 0 -- -- 60
2019-07-20 07:00:00 19.8 9 Sudeste 26 Este 0 -- -- 65
2019-07-20 06:00:00 20.9 17 Este 35 Este 0 -- -- 61
2019-07-20 05:00:00 21.4 15 Sudeste 27 Sudeste 0 -- -- 59
2019-07-20 04:00:00 22.2 13 Sudeste 25 Este 0 -- -- 56
2019-07-20 03:00:00 22.9 6 Sudeste 18 Sudeste 0 -- -- 53
2019-07-20 02:00:00 24 9 Sudeste 26 Sudeste 0 -- -- 47
2019-07-20 01:00:00 25.1 14 Sudeste 27 Sudeste 0 -- -- 42
2019-07-20 00:00:00 26.6 15 Sudeste 33 Sudeste 0 -- -- 32
2019-07-19 23:00:00 28 20 Sudeste 35 Sudeste 0 -- -- 26
2019-07-19 22:00:00 29.9 20 Sudeste 34 Sudeste 0 -- -- 23
2019-07-19 21:00:00 32.4 23 Sudeste 35 Sudeste 0 -- -- 20
2019-07-19 20:00:00 35.2 18 Sudeste 27 Sudeste 0 -- -- 19
2019-07-19 19:00:00 36.4 8 Sur 29 Sur 0 -- -- 20
2019-07-19 18:00:00 37.1 15 Sur 37 Sur 0 -- -- 19
2019-07-19 17:00:00 36.9 12 Sudeste 32 Sudeste 0 -- -- 21
2019-07-19 16:00:00 35.3 8 Sudeste 32 Sudeste 0 -- -- 22
2019-07-19 15:00:00 36.3 15 Sudeste 32 Sur 0 -- -- 24
2019-07-19 14:00:00 35.2 18 Sur 32 Sur 0 -- -- 25
2019-07-19 13:00:00 33.2 17 Sur 32 Sur 0 -- -- 29
2019-07-19 12:00:00 30.7 18 Sudeste 32 Sudeste 0 -- -- 33
2019-07-19 11:00:00 28 17 Sudeste 30 Este 0 -- -- 38
2019-07-19 10:00:00 25.2 18 Sudeste 29 Sudeste 0 -- -- 43
2019-07-19 09:00:00 22.1 10 Sudeste 18 Sudeste 0 -- -- 48
2019-07-19 08:00:00 20 4 Sudeste 23 Nordeste 0 -- -- 53
2019-07-19 07:00:00 19.7 8 Sudeste 18 Sudeste 0 -- -- 54
2019-07-19 06:00:00 20.1 8 Sudeste 15 Sudeste 0 -- -- 55
2019-07-19 05:00:00 20.8 7 Sudeste 18 Sudeste 0 -- -- 56
2019-07-19 04:00:00 21.3 7 Sudeste 18 Sudeste 0 -- -- 58
2019-07-19 03:00:00 21.9 9 Sudeste 23 Sudeste 0 -- -- 54
2019-07-19 02:00:00 23.2 6 Sudeste 12 Sudeste 0 -- -- 52
2019-07-19 01:00:00 23.1 8 Sudeste 13 Este 0 -- -- 48
2019-07-19 00:00:00 23.4 2 Norte 6 Norte 0 -- -- 31